Time;durP1;ratioP1;P1;durP2;ratioP2;P2;SDS_P1;SDS_P2;PMS_P1;PMS_P2;Temp;Humidity;BMP_temperature;BMP_pressure;BME280_temperature;BME280_humidity;BME280_pressure;Samples;Min_cycle;Max_cycle;Signal;HPM_P1;HPM_P2
2022/07/07 00:01:25;;;;;;;42.40;28.30;;;16.40;99.90;;;;;;4959296;28;20430;-72
2022/07/07 00:03:51;;;;;;;49.30;28.38;;;16.40;99.90;;;;;;4969923;28;20077;-73
2022/07/07 00:06:17;;;;;;;45.25;28.60;;;16.40;99.90;;;;;;4970961;28;20057;-73
2022/07/07 00:08:44;;;;;;;46.78;27.20;;;16.40;99.90;;;;;;4970672;28;20468;-74
2022/07/07 00:11:10;;;;;;;41.92;28.80;;;16.30;99.90;;;;;;4970596;28;20538;-75
2022/07/07 00:13:36;;;;;;;42.65;28.33;;;16.40;99.90;;;;;;4971121;28;20411;-73
2022/07/07 00:16:02;;;;;;;44.00;26.13;;;16.40;99.90;;;;;;4974559;28;20040;-74
2022/07/07 00:18:28;;;;;;;59.92;30.65;;;16.40;99.90;;;;;;4967517;28;20050;-73
2022/07/07 00:20:54;;;;;;;43.30;28.88;;;16.30;99.90;;;;;;4970171;28;20121;-74
2022/07/07 00:23:19;;;;;;;45.83;29.08;;;16.30;99.90;;;;;;4969217;28;20050;-73
2022/07/07 00:25:45;;;;;;;43.45;26.40;;;16.30;99.90;;;;;;4970545;28;20054;-72
2022/07/07 00:28:11;;;;;;;42.67;29.50;;;16.30;99.90;;;;;;4970528;28;20065;-73
2022/07/07 00:30:37;;;;;;;39.40;28.23;;;16.30;99.90;;;;;;4966318;28;20043;-72
2022/07/07 00:33:02;;;;;;;34.08;25.90;;;16.30;99.90;;;;;;4961976;28;20054;-72
2022/07/07 00:35:28;;;;;;;46.60;27.45;;;16.30;99.90;;;;;;4969950;28;20050;-72
2022/07/07 00:37:54;;;;;;;44.90;29.30;;;16.30;99.90;;;;;;4976477;28;20055;-73
2022/07/07 00:40:19;;;;;;;37.20;26.65;;;16.30;99.90;;;;;;4968452;28;20059;-73
2022/07/07 00:42:45;;;;;;;42.97;29.75;;;16.30;99.90;;;;;;4967500;28;20055;-75
2022/07/07 00:45:11;;;;;;;46.88;27.63;;;16.40;99.90;;;;;;4968385;28;20294;-73
2022/07/07 00:47:40;;;;;;;35.53;25.35;;;16.40;99.90;;;;;;4968035;28;20051;-73
2022/07/07 00:50:06;;;;;;;43.35;26.17;;;16.40;99.90;;;;;;4947050;28;20050;-72
2022/07/07 00:52:32;;;;;;;34.83;24.10;;;16.30;99.90;;;;;;4950561;28;20047;-73
2022/07/07 00:54:59;;;;;;;41.60;27.10;;;16.30;99.90;;;;;;4968459;28;20043;-73
2022/07/07 00:57:26;;;;;;;33.47;22.23;;;16.30;99.90;;;;;;4950917;28;20082;-72
2022/07/07 00:59:56;;;;;;;26.25;21.20;;;16.30;99.90;;;;;;4960272;28;20133;-73
2022/07/07 01:02:23;;;;;;;30.30;21.38;;;16.30;99.90;;;;;;4956723;28;20055;-72
2022/07/07 01:04:49;;;;;;;30.60;22.05;;;16.30;99.90;;;;;;4979556;28;20046;-73
2022/07/07 01:07:15;;;;;;;31.13;22.45;;;16.30;99.90;;;;;;4958072;28;20687;-72
2022/07/07 01:09:42;;;;;;;37.55;22.85;;;16.30;99.90;;;;;;4971823;28;20042;-72
2022/07/07 01:12:08;;;;;;;35.42;20.67;;;16.30;99.90;;;;;;4946381;28;20698;-72
2022/07/07 01:14:34;;;;;;;28.60;20.08;;;16.30;99.90;;;;;;4980861;28;20056;-72
2022/07/07 01:16:59;;;;;;;33.00;22.35;;;16.30;99.90;;;;;;4965978;28;20513;-72
2022/07/07 01:19:25;;;;;;;32.55;21.73;;;16.20;99.90;;;;;;4953873;28;20047;-72
2022/07/07 01:21:53;;;;;;;26.95;20.00;;;16.20;99.90;;;;;;4954282;28;20074;-72
2022/07/07 01:24:19;;;;;;;29.85;21.20;;;16.20;99.90;;;;;;4965468;28;20077;-73
2022/07/07 01:26:45;;;;;;;30.63;18.55;;;16.20;99.90;;;;;;4955756;28;20109;-73
2022/07/07 01:29:14;;;;;;;30.60;21.17;;;16.20;99.90;;;;;;4959051;28;20140;-72
2022/07/07 01:31:40;;;;;;;37.88;22.33;;;16.20;99.90;;;;;;4963758;28;20055;-73
2022/07/07 01:34:05;;;;;;;35.53;20.85;;;16.20;99.90;;;;;;4967593;28;20043;-73
2022/07/07 01:36:31;;;;;;;37.90;21.75;;;16.20;99.90;;;;;;4973155;28;20491;-74
2022/07/07 01:38:58;;;;;;;32.35;20.50;;;16.30;99.90;;;;;;4990187;28;20050;-74
2022/07/07 01:41:23;;;;;;;40.95;21.23;;;16.30;99.90;;;;;;4991271;28;20411;-74
2022/07/07 01:43:49;;;;;;;30.38;19.30;;;16.30;99.90;;;;;;4972368;28;20050;-74
2022/07/07 01:46:14;;;;;;;27.77;19.77;;;16.30;99.90;;;;;;4990427;28;20133;-76
2022/07/07 01:48:40;;;;;;;21.65;17.23;;;16.20;99.90;;;;;;4972767;28;20046;-76
2022/07/07 01:51:06;;;;;;;26.60;17.35;;;16.20;99.90;;;;;;4971422;28;20452;-75
2022/07/07 01:53:32;;;;;;;22.48;15.88;;;16.20;99.90;;;;;;4972403;28;20058;-75
2022/07/07 01:56:05;;;;;;;20.73;13.65;;;16.20;99.90;;;;;;4974749;28;20506;-75
2022/07/07 01:58:31;;;;;;;19.15;13.27;;;16.20;99.90;;;;;;4973487;28;20046;-74
2022/07/07 02:00:56;;;;;;;21.27;14.38;;;16.10;99.90;;;;;;4960733;28;20054;-74
2022/07/07 02:03:22;;;;;;;21.15;13.88;;;16.20;99.90;;;;;;4970217;28;20042;-74
2022/07/07 02:05:48;;;;;;;14.85;13.35;;;16.10;99.90;;;;;;4973028;28;20054;-74
2022/07/07 02:08:14;;;;;;;12.25;10.90;;;16.10;99.90;;;;;;4960014;28;20530;-75
2022/07/07 02:13:24;;;;;;;14.25;11.55;;;16.10;99.90;;;;;;4975737;28;20404;-73
2022/07/07 02:15:49;;;;;;;14.18;10.80;;;16.10;99.90;;;;;;4971937;28;20089;-74
2022/07/07 02:18:15;;;;;;;19.70;12.10;;;16.20;99.90;;;;;;4973294;28;20085;-74
2022/07/07 02:20:41;;;;;;;14.38;10.57;;;16.20;99.90;;;;;;4972627;28;20052;-74
2022/07/07 02:23:07;;;;;;;10.60;9.15;;;16.10;99.90;;;;;;4975073;28;20088;-75
2022/07/07 02:25:33;;;;;;;11.38;9.32;;;16.10;99.90;;;;;;4974535;28;20479;-75
2022/07/07 02:27:59;;;;;;;15.05;9.20;;;16.10;99.90;;;;;;4990873;28;20085;-74
2022/07/07 02:30:26;;;;;;;12.05;7.80;;;16.10;99.90;;;;;;4980534;28;20082;-75
2022/07/07 02:32:52;;;;;;;8.88;7.97;;;16.20;99.90;;;;;;4974014;28;20074;-75
2022/07/07 02:35:18;;;;;;;13.57;8.38;;;16.10;99.90;;;;;;4973426;28;20062;-74
2022/07/07 02:37:43;;;;;;;9.32;7.90;;;16.10;99.90;;;;;;4985831;28;20059;-74
2022/07/07 02:40:10;;;;;;;12.68;8.38;;;16.10;99.90;;;;;;4975539;28;20086;-74
2022/07/07 02:42:36;;;;;;;12.18;9.52;;;16.10;99.90;;;;;;4951133;28;20043;-74
2022/07/07 02:45:02;;;;;;;11.77;9.30;;;16.10;99.90;;;;;;4968174;28;20053;-74
2022/07/07 02:47:28;;;;;;;9.70;7.82;;;16.10;99.90;;;;;;4965567;28;20047;-73
2022/07/07 02:49:53;;;;;;;12.98;8.98;;;16.00;99.90;;;;;;4967939;28;20043;-73
2022/07/07 02:52:19;;;;;;;11.57;10.40;;;16.00;99.90;;;;;;4968316;28;20085;-73
2022/07/07 02:54:44;;;;;;;10.68;9.02;;;16.00;99.90;;;;;;4968875;28;20114;-73
2022/07/07 02:57:10;;;;;;;10.73;8.32;;;16.00;99.90;;;;;;4968490;28;20046;-72
2022/07/07 02:59:36;;;;;;;19.25;10.98;;;16.00;99.90;;;;;;4968543;28;20048;-74
2022/07/07 03:02:02;;;;;;;12.27;8.98;;;16.10;99.90;;;;;;4968582;28;20133;-73
2022/07/07 03:04:28;;;;;;;17.25;10.90;;;16.00;99.90;;;;;;4967575;28;20081;-73
2022/07/07 03:06:53;;;;;;;12.50;10.02;;;16.10;99.90;;;;;;4969033;28;20113;-73
2022/07/07 03:09:19;;;;;;;14.07;10.30;;;16.00;99.90;;;;;;4969326;28;20035;-73
2022/07/07 03:11:45;;;;;;;17.25;11.48;;;16.00;99.90;;;;;;4969508;28;20269;-73
2022/07/07 03:14:10;;;;;;;19.67;10.77;;;16.00;99.90;;;;;;4965624;28;20051;-73
2022/07/07 03:16:36;;;;;;;16.95;11.18;;;16.10;99.90;;;;;;4964703;28;20043;-73
2022/07/07 03:19:02;;;;;;;16.17;10.65;;;16.00;99.90;;;;;;4969862;28;20046;-72
2022/07/07 03:21:27;;;;;;;28.17;9.80;;;16.00;99.90;;;;;;4969379;28;20054;-73
2022/07/07 03:23:53;;;;;;;17.30;10.38;;;16.00;99.90;;;;;;4969989;28;20046;-72
2022/07/07 03:26:19;;;;;;;11.95;8.93;;;16.00;99.90;;;;;;4968541;28;20512;-73
2022/07/07 03:28:44;;;;;;;17.60;10.25;;;16.00;99.90;;;;;;4967168;28;20051;-72
2022/07/07 03:31:10;;;;;;;16.67;9.13;;;16.10;99.90;;;;;;4969705;28;20459;-73
2022/07/07 03:33:35;;;;;;;15.45;9.15;;;16.00;99.90;;;;;;4968691;28;20448;-73
2022/07/07 03:36:01;;;;;;;21.83;10.60;;;16.00;99.90;;;;;;4968291;28;20062;-72
2022/07/07 03:38:26;;;;;;;10.35;8.90;;;16.00;99.90;;;;;;4967861;28;20059;-72
2022/07/07 03:40:52;;;;;;;19.58;8.55;;;16.10;99.90;;;;;;4967580;28;20129;-72
2022/07/07 03:43:20;;;;;;;14.60;8.68;;;16.00;99.90;;;;;;4966332;28;20120;-73
2022/07/07 03:45:46;;;;;;;28.45;11.23;;;16.00;99.90;;;;;;4967450;28;20825;-73
2022/07/07 03:48:11;;;;;;;31.15;9.75;;;16.00;99.90;;;;;;4968950;28;20101;-72
2022/07/07 03:50:37;;;;;;;18.40;8.75;;;16.00;99.90;;;;;;4969041;28;20054;-72
2022/07/07 03:53:03;;;;;;;12.98;7.95;;;16.00;99.90;;;;;;4969889;28;20154;-72
2022/07/07 03:55:28;;;;;;;15.73;8.23;;;15.90;99.90;;;;;;4966001;28;20520;-72
2022/07/07 03:57:54;;;;;;;18.73;7.80;;;16.00;99.90;;;;;;4969504;28;20035;-76
2022/07/07 04:00:20;;;;;;;18.42;9.02;;;16.00;99.90;;;;;;4964713;28;20051;-74
2022/07/07 04:02:45;;;;;;;19.20;9.40;;;15.90;99.90;;;;;;4968459;28;20070;-75
2022/07/07 04:05:11;;;;;;;12.20;8.15;;;16.00;99.90;;;;;;4968344;28;20518;-75
2022/07/07 04:07:37;;;;;;;15.10;8.02;;;15.90;99.90;;;;;;4969633;28;20476;-74
2022/07/07 04:10:03;;;;;;;18.80;7.82;;;15.90;99.90;;;;;;4967948;28;20101;-75
2022/07/07 04:12:28;;;;;;;8.82;7.78;;;15.90;99.90;;;;;;4970211;28;20142;-76
2022/07/07 04:14:56;;;;;;;11.00;6.95;;;15.90;99.90;;;;;;4969949;28;20134;-75
2022/07/07 04:17:21;;;;;;;20.10;7.68;;;15.90;99.90;;;;;;4970195;28;20042;-76
2022/07/07 04:19:47;;;;;;;10.52;4.88;;;15.90;99.90;;;;;;4968289;28;20109;-74
2022/07/07 04:22:13;;;;;;;7.20;3.60;;;15.90;99.90;;;;;;4970922;28;20070;-75
2022/07/07 04:24:38;;;;;;;7.18;4.28;;;15.90;99.90;;;;;;4953793;28;20093;-75
2022/07/07 04:27:05;;;;;;;11.93;4.40;;;15.90;99.90;;;;;;4972661;28;20480;-73
2022/07/07 04:29:31;;;;;;;9.95;4.28;;;15.90;99.90;;;;;;4961536;28;20059;-73
2022/07/07 04:31:57;;;;;;;8.63;3.97;;;15.90;99.90;;;;;;4965889;28;20403;-73
2022/07/07 04:34:22;;;;;;;13.50;4.85;;;15.80;99.90;;;;;;4968271;28;20408;-75
2022/07/07 04:36:48;;;;;;;8.00;4.15;;;15.80;99.90;;;;;;4969803;28;20051;-73
2022/07/07 04:39:14;;;;;;;18.58;4.03;;;15.80;99.90;;;;;;4970696;28;20478;-74
2022/07/07 04:41:39;;;;;;;17.17;4.15;;;15.80;99.90;;;;;;4973592;28;20055;-74
2022/07/07 04:44:05;;;;;;;12.15;3.20;;;15.70;99.90;;;;;;4973539;28;20051;-74
2022/07/07 04:46:32;;;;;;;19.75;4.05;;;15.70;99.90;;;;;;4973120;28;20508;-75
2022/07/07 04:48:57;;;;;;;12.00;3.28;;;15.80;99.90;;;;;;4986184;28;20047;-75
2022/07/07 04:51:23;;;;;;;10.68;2.97;;;15.70;99.90;;;;;;4971536;28;20050;-75
2022/07/07 04:53:49;;;;;;;15.25;5.13;;;15.80;99.90;;;;;;4964863;28;20138;-72
2022/07/07 04:56:15;;;;;;;12.85;4.07;;;15.80;99.90;;;;;;4967515;28;20051;-72
2022/07/07 04:58:41;;;;;;;8.25;3.33;;;15.70;99.90;;;;;;4972896;28;20078;-73
2022/07/07 05:01:08;;;;;;;11.10;3.38;;;15.70;99.90;;;;;;4972603;28;20051;-73
2022/07/07 05:03:34;;;;;;;16.73;3.38;;;15.70;99.90;;;;;;4970596;28;20058;-72
2022/07/07 05:05:59;;;;;;;16.05;3.78;;;15.60;99.90;;;;;;4970246;28;20042;-72
2022/07/07 05:08:25;;;;;;;15.90;3.72;;;15.60;99.90;;;;;;4970506;28;20046;-72
2022/07/07 05:10:51;;;;;;;14.82;3.80;;;15.60;99.90;;;;;;4967247;28;20083;-72
2022/07/07 05:13:17;;;;;;;14.32;3.92;;;15.60;99.90;;;;;;4967929;28;20487;-73
2022/07/07 05:15:42;;;;;;;15.32;4.13;;;15.60;99.90;;;;;;4968013;28;20055;-73
2022/07/07 05:18:09;;;;;;;8.90;3.65;;;15.60;99.90;;;;;;4966206;28;20047;-72
2022/07/07 05:20:34;;;;;;;13.00;4.25;;;15.60;99.90;;;;;;4970057;28;20058;-72
2022/07/07 05:23:00;;;;;;;22.42;5.25;;;15.60;99.90;;;;;;4967284;28;20043;-72
2022/07/07 05:25:26;;;;;;;10.65;4.10;;;15.70;99.90;;;;;;4969544;28;20330;-72
2022/07/07 05:27:53;;;;;;;13.45;4.15;;;15.70;99.90;;;;;;4970921;28;20054;-72
2022/07/07 05:30:19;;;;;;;18.60;3.97;;;15.60;99.90;;;;;;4970492;28;20047;-72
2022/07/07 05:32:45;;;;;;;7.47;3.47;;;15.60;99.90;;;;;;4967265;28;20106;-72
2022/07/07 05:35:11;;;;;;;15.27;4.25;;;15.60;99.90;;;;;;4961727;28;20696;-72
2022/07/07 05:37:37;;;;;;;13.73;4.00;;;15.70;99.90;;;;;;4985179;28;20058;-71
2022/07/07 05:40:03;;;;;;;14.05;3.75;;;15.80;99.90;;;;;;4983287;28;20059;-70
2022/07/07 05:42:29;;;;;;;12.85;3.47;;;15.80;99.90;;;;;;4969135;28;20077;-71
2022/07/07 05:44:55;;;;;;;9.38;3.35;;;15.80;99.90;;;;;;4970979;28;20397;-71
2022/07/07 05:47:20;;;;;;;12.25;3.67;;;15.90;99.90;;;;;;4968595;28;20051;-71
2022/07/07 05:49:46;;;;;;;10.65;4.00;;;15.90;99.90;;;;;;4963887;28;20610;-75
2022/07/07 05:52:11;;;;;;;11.05;4.05;;;15.90;99.90;;;;;;4976305;28;20055;-75
2022/07/07 05:54:37;;;;;;;11.68;3.15;;;15.90;99.90;;;;;;4969947;28;20498;-76
2022/07/07 05:57:03;;;;;;;17.85;3.88;;;15.90;99.90;;;;;;4969657;28;20063;-73
2022/07/07 05:59:29;;;;;;;17.50;3.83;;;15.90;99.90;;;;;;4968952;28;20042;-73
2022/07/07 06:01:55;;;;;;;15.32;3.50;;;15.90;99.90;;;;;;4968093;28;20047;-73
2022/07/07 06:04:20;;;;;;;12.73;4.97;;;15.90;99.90;;;;;;4968785;28;20097;-73
2022/07/07 06:06:46;;;;;;;21.27;4.78;;;15.90;99.90;;;;;;4967532;28;20133;-74
2022/07/07 06:09:11;;;;;;;16.00;4.75;;;15.90;99.90;;;;;;4959853;28;20058;-76
2022/07/07 06:11:37;;;;;;;18.60;4.88;;;15.90;99.90;;;;;;4970134;28;20449;-74
2022/07/07 06:14:03;;;;;;;10.23;3.95;;;15.80;99.90;;;;;;4961500;28;20043;-74
2022/07/07 06:16:43;;;;;;;13.10;4.15;;;15.90;99.90;;;;;;4963409;28;20047;-72
2022/07/07 06:19:10;;;;;;;14.90;4.10;;;15.80;99.90;;;;;;4973921;28;20089;-73
2022/07/07 06:21:37;;;;;;;14.02;4.38;;;15.70;99.90;;;;;;4969431;28;20043;-73
2022/07/07 06:24:03;;;;;;;13.73;3.85;;;15.70;99.90;;;;;;4969329;28;20078;-72
2022/07/07 06:26:29;;;;;;;19.60;4.97;;;15.70;99.90;;;;;;4963865;28;20059;-75
2022/07/07 06:28:54;;;;;;;13.27;4.32;;;15.80;99.90;;;;;;4970027;28;20046;-76
2022/07/07 06:31:21;;;;;;;15.07;4.32;;;15.70;99.90;;;;;;4967853;28;20404;-72
2022/07/07 06:33:47;;;;;;;19.63;4.63;;;15.80;99.90;;;;;;4947520;28;20043;-73
2022/07/07 06:36:12;;;;;;;11.25;4.47;;;15.90;99.90;;;;;;4976828;28;20054;-73
2022/07/07 06:38:40;;;;;;;17.55;5.28;;;16.00;99.90;;;;;;4966846;28;20408;-73
2022/07/07 06:41:05;;;;;;;26.17;5.43;;;16.00;99.90;;;;;;4964874;28;20051;-72
2022/07/07 06:43:31;;;;;;;11.40;4.18;;;16.10;99.90;;;;;;4980250;28;20047;-75
2022/07/07 06:45:57;;;;;;;17.00;4.88;;;16.10;99.90;;;;;;4961349;28;20046;-72
2022/07/07 06:48:23;;;;;;;28.00;5.15;;;16.20;99.90;;;;;;4962466;28;20042;-73
2022/07/07 06:50:49;;;;;;;10.73;4.07;;;16.50;99.90;;;;;;4979073;28;20113;-73
2022/07/07 06:53:15;;;;;;;11.00;4.22;;;16.70;99.90;;;;;;4961951;28;20097;-73
2022/07/07 06:55:41;;;;;;;16.05;5.15;;;17.00;99.90;;;;;;4961135;28;21373;-73
2022/07/07 06:58:08;;;;;;;19.58;4.80;;;17.30;99.90;;;;;;4963034;28;20069;-73
2022/07/07 07:00:34;;;;;;;16.90;3.70;;;17.40;99.90;;;;;;4962223;28;20432;-73
2022/07/07 07:02:59;;;;;;;13.60;4.38;;;17.60;99.90;;;;;;4963283;28;20054;-74
2022/07/07 07:05:28;;;;;;;13.13;3.38;;;17.50;99.90;;;;;;4962672;28;20117;-75
2022/07/07 07:07:54;;;;;;;7.35;2.92;;;17.60;99.90;;;;;;4962633;28;20047;-73
2022/07/07 07:10:19;;;;;;;16.60;4.25;;;17.40;99.90;;;;;;4963240;28;20051;-74
2022/07/07 07:12:45;;;;;;;10.20;2.83;;;17.60;99.90;;;;;;4962956;28;20133;-74
2022/07/07 07:15:11;;;;;;;17.30;4.80;;;17.80;99.90;;;;;;4964380;28;20050;-74
2022/07/07 07:17:37;;;;;;;8.20;2.83;;;17.90;99.90;;;;;;4963691;28;21062;-74
2022/07/07 07:20:04;;;;;;;12.60;3.42;;;18.00;99.90;;;;;;4962183;28;20055;-74
2022/07/07 07:22:37;;;;;;;17.45;4.70;;;17.80;99.90;;;;;;4963098;28;20057;-74
2022/07/07 07:25:04;;;;;;;11.73;3.35;;;17.70;99.90;;;;;;4962233;28;20065;-75
2022/07/07 07:27:30;;;;;;;13.20;3.00;;;17.50;99.90;;;;;;4961253;28;20061;-75
2022/07/07 07:29:55;;;;;;;10.77;3.30;;;17.50;99.90;;;;;;4962066;28;20047;-75
2022/07/07 07:32:21;;;;;;;17.58;4.10;;;17.40;99.90;;;;;;4962871;28;20051;-74
2022/07/07 07:34:46;;;;;;;16.70;2.80;;;17.40;99.90;;;;;;4962385;28;20104;-75
2022/07/07 07:37:12;;;;;;;12.93;2.83;;;17.30;99.90;;;;;;4974350;28;20051;-74
2022/07/07 07:39:39;;;;;;;8.98;2.38;;;17.30;99.90;;;;;;4981514;28;20141;-74
2022/07/07 07:42:05;;;;;;;5.35;1.92;;;17.50;99.90;;;;;;4978760;28;20058;-75
2022/07/07 07:47:14;;;;;;;7.05;2.05;;;18.20;99.90;;;;;;4971409;28;20054;-75
2022/07/07 07:49:40;;;;;;;6.13;1.38;;;18.40;99.90;;;;;;4965649;28;20057;-74
2022/07/07 07:52:06;;;;;;;7.65;2.05;;;18.50;99.90;;;;;;4983164;28;20050;-74
2022/07/07 07:54:32;;;;;;;5.50;1.58;;;18.50;99.90;;;;;;4970165;28;20042;-74
2022/07/07 07:56:57;;;;;;;10.10;1.92;;;18.30;99.90;;;;;;4971144;28;20104;-76
2022/07/07 07:59:23;;;;;;;6.20;1.52;;;18.50;99.90;;;;;;4969299;28;20077;-75
2022/07/07 08:01:49;;;;;;;5.45;1.30;;;18.70;99.90;;;;;;4965146;28;20109;-72
2022/07/07 08:04:14;;;;;;;3.22;1.08;;;19.00;99.90;;;;;;4970096;28;20056;-72
2022/07/07 08:06:40;;;;;;;16.00;14.80;;;19.20;99.90;;;;;;4969527;28;20684;-73
2022/07/07 08:09:06;;;;;;;2.08;1.50;;;19.40;99.90;;;;;;4969789;28;20057;-73
2022/07/07 08:11:32;;;;;;;17.35;1.90;;;19.60;99.90;;;;;;4969690;28;20046;-73
2022/07/07 08:13:57;;;;;;;7.88;2.15;;;19.70;99.90;;;;;;4971204;28;20042;-72
2022/07/07 08:16:23;;;;;;;10.05;1.90;;;19.80;99.90;;;;;;4971067;28;20069;-73
2022/07/07 08:18:49;;;;;;;5.60;1.50;;;19.70;99.90;;;;;;4971534;28;20113;-74
2022/07/07 08:21:14;;;;;;;8.70;1.92;;;19.50;99.90;;;;;;4970230;28;20054;-75
2022/07/07 08:23:40;;;;;;;5.50;1.48;;;19.30;99.90;;;;;;4971523;28;20043;-73
2022/07/07 08:26:06;;;;;;;2.45;1.42;;;19.00;99.90;;;;;;4970444;28;20345;-74
2022/07/07 08:28:32;;;;;;;3.97;1.30;;;18.80;99.90;;;;;;4970198;28;20490;-73
2022/07/07 08:30:57;;;;;;;10.52;1.85;;;18.60;99.90;;;;;;4967121;28;20130;-73
2022/07/07 08:33:23;;;;;;;2.83;1.20;;;18.30;99.90;;;;;;4968525;28;20129;-73
2022/07/07 08:35:49;;;;;;;3.00;1.13;;;18.10;99.90;;;;;;4970119;28;20038;-73
2022/07/07 08:38:15;;;;;;;4.00;1.55;;;18.30;99.90;;;;;;4970456;28;20060;-74
2022/07/07 08:40:40;;;;;;;6.55;2.03;;;18.60;99.90;;;;;;4970215;28;20050;-71
2022/07/07 08:43:07;;;;;;;2.72;1.52;;;18.80;99.90;;;;;;4969753;28;20410;-68
2022/07/07 08:45:33;;;;;;;4.32;1.95;;;19.10;99.90;;;;;;4980431;28;20039;-67
2022/07/07 08:47:59;;;;;;;7.53;2.25;;;19.10;99.90;;;;;;4987357;28;20046;-68
2022/07/07 08:50:26;;;;;;;5.40;1.38;;;19.00;99.90;;;;;;4986355;28;20042;-67
2022/07/07 08:52:54;;;;;;;5.38;1.58;;;19.00;99.90;;;;;;4984856;28;20056;-68
2022/07/07 08:55:20;;;;;;;;;;;19.00;99.90;;;;;;4988553;28;20530;-69
2022/07/07 08:57:46;;;;;;;4.60;2.08;;;19.00;99.90;;;;;;4992286;28;19921;-69
2022/07/07 09:00:12;;;;;;;11.02;2.17;;;19.20;99.90;;;;;;4987733;28;20078;-69
2022/07/07 09:02:38;;;;;;;9.25;2.40;;;19.50;99.90;;;;;;4977062;28;20073;-69
2022/07/07 09:05:05;;;;;;;16.63;2.33;;;19.60;99.90;;;;;;4979754;28;20042;-70
2022/07/07 09:07:47;;;;;;;4.20;2.60;;;19.60;99.90;;;;;;4990161;28;20118;-69
2022/07/07 09:10:33;;;;;;;4.75;2.63;;;19.60;99.90;;;;;;4990280;28;20810;-70
2022/07/07 09:13:00;;;;;;;5.35;2.03;;;19.60;99.90;;;;;;4983025;28;20109;-69
2022/07/07 09:15:26;;;;;;;5.30;1.73;;;19.50;99.90;;;;;;4985767;28;20045;-70
2022/07/07 09:17:53;;;;;;;4.65;2.03;;;19.40;99.90;;;;;;4977165;28;20121;-69
2022/07/07 09:20:19;;;;;;;5.97;2.03;;;19.30;99.90;;;;;;4982080;28;20054;-70
2022/07/07 09:22:57;;;;;;;8.38;2.65;;;19.30;99.90;;;;;;4985239;28;20761;-70
2022/07/07 09:25:24;;;;;;;13.80;4.13;;;19.30;99.90;;;;;;4981134;28;20057;-70
2022/07/07 09:28:00;;;;;;;10.77;2.58;;;19.40;99.90;;;;;;4989601;28;20098;-70
2022/07/07 09:30:31;;;;;;;10.05;2.72;;;19.50;99.90;;;;;;4974494;28;20049;-70
2022/07/07 09:32:59;;;;;;;14.88;3.22;;;19.50;99.90;;;;;;4981603;28;20031;-70
2022/07/07 09:38:22;;;;;;;9.65;2.70;;;19.70;99.90;;;;;;4990730;28;20524;-69
2022/07/07 09:41:03;;;;;;;12.88;2.42;;;19.70;99.90;;;;;;4973460;28;20133;-69
2022/07/07 09:43:35;;;;;;;13.52;3.97;;;19.70;99.90;;;;;;4990643;28;20050;-69
2022/07/07 09:46:17;;;;;;;10.55;2.90;;;19.60;99.90;;;;;;4970852;28;20095;-70
2022/07/07 09:49:04;;;;;;;7.28;3.08;;;19.40;99.90;;;;;;4977180;28;20500;-69
2022/07/07 09:51:34;;;;;;;8.50;3.05;;;19.00;99.90;;;;;;4981737;28;20415;-69
2022/07/07 09:54:10;;;;;;;7.75;3.35;;;18.90;99.90;;;;;;4987051;28;20103;-69
2022/07/07 09:56:46;;;;;;;9.18;2.65;;;18.80;99.90;;;;;;4988128;28;20050;-69
2022/07/07 09:59:14;;;;;;;7.07;2.58;;;18.80;99.90;;;;;;4987582;28;20177;-69
2022/07/07 10:01:40;;;;;;;;;;;18.90;99.90;;;;;;4985209;28;20043;-69
2022/07/07 10:04:11;;;;;;;4.50;2.50;;;19.00;99.90;;;;;;4985501;28;19933;-69
2022/07/07 10:06:39;;;;;;;7.07;2.03;;;19.00;99.90;;;;;;4984905;28;20053;-69
2022/07/07 10:09:05;;;;;;;7.10;2.53;;;19.00;99.90;;;;;;4985392;28;20054;-69
2022/07/07 10:11:44;;;;;;;5.97;1.83;;;19.00;99.90;;;;;;4984522;28;20420;-68
2022/07/07 10:14:14;;;;;;;11.25;2.95;;;19.20;99.90;;;;;;4983612;28;20042;-68
2022/07/07 10:16:42;;;;;;;5.93;2.58;;;19.40;99.90;;;;;;4984563;28;20050;-68
2022/07/07 10:19:12;;;;;;;11.50;3.35;;;19.50;99.90;;;;;;4985225;28;20054;-68
2022/07/07 10:21:41;;;;;;;11.68;4.10;;;19.40;99.90;;;;;;4984648;28;20057;-66
2022/07/07 10:24:08;;;;;;;10.07;2.72;;;19.30;99.90;;;;;;4985086;28;20069;-67
2022/07/07 10:26:46;;;;;;;5.75;2.70;;;18.90;99.90;;;;;;4960803;28;20049;-67
2022/07/07 10:29:12;;;;;;;;;;;18.60;99.90;;;;;;4988477;28;20046;-67
2022/07/07 10:31:38;;;;;;;6.55;2.38;;;18.40;99.90;;;;;;4989842;28;19975;-68
2022/07/07 10:34:10;;;;;;;5.68;3.15;;;18.30;99.90;;;;;;4981970;28;20041;-68
2022/07/07 10:36:51;;;;;;;9.13;3.65;;;18.40;99.90;;;;;;4984073;28;20054;-67
2022/07/07 10:39:21;;;;;;;10.35;2.88;;;18.50;99.90;;;;;;4967061;28;20086;-67
2022/07/07 10:42:01;;;;;;;6.47;2.67;;;18.50;99.90;;;;;;4975140;28;20146;-67
2022/07/07 10:44:28;;;;;;;10.18;4.53;;;18.60;99.90;;;;;;4964740;28;20039;-67
2022/07/07 10:47:11;;;;;;;9.52;2.47;;;18.40;99.90;;;;;;4964615;28;20895;-68
2022/07/07 10:49:42;;;;;;;6.53;3.00;;;18.50;99.90;;;;;;4964509;28;20053;-68
2022/07/07 10:52:12;;;;;;;13.65;2.85;;;18.40;99.90;;;;;;4964904;28;20110;-67
2022/07/07 10:54:50;;;;;;;10.02;3.33;;;18.20;99.90;;;;;;4969972;28;20203;-68
2022/07/07 10:57:24;;;;;;;7.22;3.17;;;18.10;99.90;;;;;;4970439;28;20058;-68
2022/07/07 10:59:56;;;;;;;9.48;3.50;;;18.10;99.90;;;;;;4967008;28;20050;-68
2022/07/07 11:02:36;;;;;;;9.45;3.80;;;18.10;99.90;;;;;;4969185;28;20136;-68
2022/07/07 11:05:09;;;;;;;18.25;4.57;;;18.00;99.90;;;;;;4968099;28;20169;-69
2022/07/07 11:07:35;;;;;;;14.73;3.78;;;18.10;99.90;;;;;;4965175;28;20054;-68
2022/07/07 11:10:03;;;;;;;10.35;3.17;;;18.20;99.90;;;;;;4970042;28;20047;-69
2022/07/07 11:12:36;;;;;;;16.27;4.68;;;18.20;99.90;;;;;;4969885;28;20451;-69
2022/07/07 11:15:30;;;;;;;34.90;6.50;;;18.10;99.90;;;;;;4966280;28;20513;-68
2022/07/07 11:17:56;;;;;;;16.08;4.30;;;18.00;99.90;;;;;;4966766;28;20047;-68
2022/07/07 11:20:27;;;;;;;23.55;5.40;;;17.80;99.90;;;;;;4969574;28;20061;-69
2022/07/07 11:22:54;;;;;;;16.70;4.72;;;17.70;99.90;;;;;;4968009;28;20042;-68
2022/07/07 11:25:21;;;;;;;25.92;5.95;;;17.80;99.90;;;;;;4969279;28;20039;-67
2022/07/07 11:27:49;;;;;;;27.80;6.82;;;17.80;99.90;;;;;;4969646;28;20043;-68
2022/07/07 11:30:16;;;;;;;16.67;5.38;;;17.80;99.90;;;;;;4965287;28;20146;-69
2022/07/07 11:32:43;;;;;;;26.90;5.55;;;17.90;99.90;;;;;;4967208;28;20093;-68
2022/07/07 11:35:11;;;;;;;16.73;4.60;;;17.80;99.90;;;;;;4957207;28;20093;-68
2022/07/07 11:37:40;;;;;;;21.13;4.68;;;17.80;99.90;;;;;;4983491;28;20751;-68
2022/07/07 11:40:22;;;;;;;15.07;4.80;;;17.90;99.90;;;;;;4988413;28;20050;-69
2022/07/07 11:42:49;;;;;;;38.90;5.43;;;18.00;99.90;;;;;;4979590;28;20034;-68
2022/07/07 11:45:28;;;;;;;22.88;5.68;;;18.00;99.90;;;;;;4976438;28;20043;-68
2022/07/07 11:48:02;;;;;;;21.52;5.10;;;18.00;99.90;;;;;;4993335;28;20538;-67
2022/07/07 11:50:32;;;;;;;28.75;5.32;;;17.80;99.90;;;;;;4987751;28;20442;-68
2022/07/07 11:53:01;;;;;;;20.52;5.70;;;17.70;99.90;;;;;;4987427;28;20046;-68
2022/07/07 11:55:27;;;;;;;30.42;5.60;;;17.60;99.90;;;;;;4986590;28;20050;-68
2022/07/07 11:57:56;;;;;;;15.38;5.10;;;17.50;99.90;;;;;;4982500;28;20043;-68
2022/07/07 12:00:28;;;;;;;25.95;5.18;;;17.60;99.90;;;;;;4987129;28;20566;-68
2022/07/07 12:02:56;;;;;;;17.35;5.22;;;17.60;99.90;;;;;;4975427;28;20049;-68
2022/07/07 12:05:27;;;;;;;20.65;4.88;;;17.70;99.90;;;;;;4973013;28;20061;-67
2022/07/07 12:07:59;;;;;;;20.25;5.25;;;17.60;99.90;;;;;;4995266;28;20403;-67
2022/07/07 12:10:29;;;;;;;24.48;4.20;;;17.60;99.90;;;;;;4973195;28;20116;-68
2022/07/07 12:13:03;;;;;;;14.55;4.57;;;17.60;99.90;;;;;;4983262;28;20102;-73
2022/07/07 12:15:33;;;;;;;21.65;5.13;;;17.60;99.90;;;;;;4964667;28;20436;-74
2022/07/07 12:18:00;;;;;;;12.20;5.00;;;17.70;99.90;;;;;;4967731;28;20047;-74
2022/07/07 12:20:26;;;;;;;17.80;5.35;;;17.80;99.90;;;;;;4969303;28;20046;-74
2022/07/07 12:22:53;;;;;;;11.88;4.10;;;17.80;99.90;;;;;;4987451;28;20531;-73
2022/07/07 12:25:20;;;;;;;20.63;4.88;;;17.80;99.90;;;;;;4969892;28;20046;-74
2022/07/07 12:27:56;;;;;;;13.50;4.32;;;17.90;99.90;;;;;;4970827;28;20125;-73
2022/07/07 12:30:23;;;;;;;15.30;4.18;;;18.00;99.90;;;;;;4987511;28;20034;-73
2022/07/07 12:32:49;;;;;;;17.38;4.97;;;18.10;99.90;;;;;;4967174;28;20162;-71
2022/07/07 12:35:39;;;;;;;17.35;4.35;;;18.10;99.90;;;;;;4966596;28;20550;-73
2022/07/07 12:38:09;;;;;;;23.45;5.25;;;18.00;99.90;;;;;;4961362;28;20058;-71
2022/07/07 12:40:40;;;;;;;16.70;4.03;;;18.10;99.90;;;;;;4987372;28;20058;-73
2022/07/07 12:43:12;;;;;;;17.65;4.90;;;18.20;99.90;;;;;;4970108;28;20046;-73
2022/07/07 12:45:41;;;;;;;13.65;4.28;;;18.40;99.90;;;;;;4982077;28;20554;-72
2022/07/07 12:48:17;;;;;;;16.23;6.07;;;18.50;99.90;;;;;;4971281;28;20050;-73